createdAt,value
2017-05-25T07:00:21.236Z,1995
2017-05-25T07:01:23.296Z,1860
2017-05-25T07:02:24.965Z,1885
2017-05-25T07:03:26.676Z,2225
2017-05-25T07:04:28.367Z,2345
2017-05-25T07:05:30.094Z,2525
2017-05-25T07:06:31.811Z,2445
2017-05-25T07:07:33.536Z,2430
2017-05-25T07:08:35.272Z,2340
2017-05-25T07:09:37.012Z,2365
2017-05-25T07:10:38.802Z,2485
2017-05-25T07:11:40.513Z,2385
2017-05-25T07:12:42.394Z,2340
2017-05-25T07:13:44.207Z,2300
2017-05-25T07:14:45.929Z,2275
2017-05-25T07:15:47.701Z,2165
2017-05-25T07:16:49.501Z,1975
2017-05-25T07:17:51.205Z,1935
2017-05-25T07:19:32.490Z,2000
2017-05-25T07:20:34.183Z,2385
2017-05-25T07:21:35.945Z,1860
2017-05-25T07:22:37.623Z,2235
2017-05-25T07:23:39.440Z,2390
2017-05-25T07:24:41.222Z,1925
2017-05-25T07:25:43.016Z,2540
2017-05-25T07:26:44.668Z,2620
2017-05-25T07:27:46.363Z,2135
2017-05-25T07:28:48.054Z,2610
2017-05-25T07:29:49.809Z,855
2017-05-25T07:30:51.513Z,800
2017-05-25T07:31:53.191Z,2580
2017-05-25T07:32:54.880Z,2715
2017-05-25T07:33:56.605Z,2845
2017-05-25T07:34:58.381Z,2770
2017-05-25T07:36:00.035Z,2630
2017-05-25T07:37:01.734Z,2385
2017-05-25T07:38:03.437Z,2300
2017-05-25T07:39:05.104Z,2450
2017-05-25T07:40:06.916Z,2595
2017-05-25T07:41:08.611Z,2525
2017-05-25T07:42:10.311Z,2400
2017-05-25T07:43:12.049Z,2360
2017-05-25T07:44:13.775Z,2560
2017-05-25T07:45:15.569Z,2675
2017-05-25T07:46:17.299Z,2715
2017-05-25T07:47:18.992Z,2625
2017-05-25T07:48:20.652Z,1940
2017-05-25T07:49:22.295Z,1110
2017-05-25T07:50:24.054Z,1150
2017-05-25T07:51:25.695Z,2655
2017-05-25T07:52:27.359Z,1045
2017-05-25T07:53:28.984Z,1155
2017-05-25T07:54:30.701Z,1175
2017-05-25T07:55:32.341Z,830
2017-05-25T07:56:34.000Z,690
2017-05-25T07:57:35.652Z,665
2017-05-25T07:58:37.349Z,740
2017-05-25T07:59:39.000Z,1175
2017-05-25T08:00:40.712Z,2375
2017-05-25T08:01:42.397Z,1090
2017-05-25T08:02:44.035Z,1970
2017-05-25T08:03:45.760Z,580
2017-05-25T08:04:47.458Z,515
2017-05-25T08:05:49.212Z,490
2017-05-25T08:06:50.862Z,485
2017-05-25T08:07:52.581Z,475
2017-05-25T08:08:54.236Z,475
2017-05-25T08:09:56.015Z,495
2017-05-25T08:10:57.689Z,540
2017-05-25T08:11:59.332Z,585
2017-05-25T08:13:01.012Z,670
2017-05-25T08:14:02.716Z,730
2017-05-25T08:15:04.371Z,815
2017-05-25T08:16:06.028Z,2330
2017-05-25T08:17:07.753Z,1195
2017-05-25T08:18:09.466Z,1015
2017-05-25T08:19:11.167Z,810
2017-05-25T08:20:12.842Z,665
2017-05-25T08:21:14.515Z,655
2017-05-25T08:22:16.173Z,670
2017-05-25T08:23:17.893Z,795
2017-05-25T08:24:19.652Z,925
2017-05-25T08:25:21.297Z,840
2017-05-25T08:26:23.025Z,955
2017-05-25T08:27:24.702Z,2760
2017-05-25T08:28:26.389Z,1100
2017-05-25T08:29:28.161Z,715
2017-05-25T08:30:29.859Z,2660
2017-05-25T08:31:31.539Z,2465
2017-05-25T08:32:33.224Z,2475
2017-05-25T08:33:34.885Z,2510
2017-05-25T08:34:36.615Z,1520
2017-05-25T08:35:38.264Z,885
2017-05-25T08:36:39.958Z,805
2017-05-25T08:37:41.673Z,1025
2017-05-25T08:38:43.426Z,3165
2017-05-25T08:39:45.141Z,1650
2017-05-25T08:40:47.495Z,1865
2017-05-25T08:41:49.182Z,1550
2017-05-25T08:42:50.834Z,2000
2017-05-25T08:43:52.639Z,1630
2017-05-25T08:44:54.433Z,975
2017-05-25T08:45:56.095Z,1000
2017-05-25T08:46:57.848Z,815
2017-05-25T08:47:59.556Z,2625
2017-05-25T08:49:01.330Z,2695
2017-05-25T08:50:03.079Z,2380
2017-05-25T08:51:04.777Z,2245
2017-05-25T08:52:06.590Z,2955
2017-05-25T08:53:08.296Z,2855
2017-05-25T08:54:10.046Z,2715
2017-05-25T08:55:11.800Z,2670
2017-05-25T08:56:13.506Z,3130
2017-05-25T08:57:15.283Z,3905
2017-05-25T08:58:17.094Z,4015
2017-05-25T08:59:18.834Z,3100
2017-05-25T09:00:20.529Z,2805
2017-05-25T09:01:22.239Z,2805
2017-05-25T09:02:24.015Z,2900
2017-05-25T09:03:25.744Z,2880
2017-05-25T09:04:27.604Z,2865
2017-05-25T09:06:09.324Z,2725
2017-05-25T09:07:11.081Z,2515
2017-05-25T09:08:12.755Z,2795
2017-05-25T09:09:14.435Z,3025
2017-05-25T09:10:16.203Z,2905
2017-05-25T09:11:17.924Z,2765
2017-05-25T09:12:19.671Z,2705
2017-05-25T09:13:21.348Z,2745
2017-05-25T09:14:22.992Z,2870
2017-05-25T09:15:24.778Z,2750
2017-05-25T09:16:26.553Z,2850
2017-05-25T09:17:28.244Z,2950
2017-05-25T09:18:29.978Z,2925
2017-05-25T09:19:31.691Z,2770
2017-05-25T09:20:33.323Z,2570
2017-05-25T09:21:35.124Z,2490
2017-05-25T09:22:36.802Z,2605
2017-05-25T09:23:38.562Z,2720
2017-05-25T09:24:40.321Z,2810
2017-05-25T09:25:41.991Z,2580
2017-05-25T09:26:43.703Z,2525
2017-05-25T09:27:45.456Z,2675
2017-05-25T09:28:47.229Z,2835
2017-05-25T09:29:48.922Z,2830
2017-05-25T09:30:50.590Z,2915
2017-05-25T09:31:52.238Z,2860
2017-05-25T09:32:53.960Z,2695
2017-05-25T09:33:55.717Z,2635
2017-05-25T09:34:57.518Z,2575
2017-05-25T09:35:59.244Z,2490
2017-05-25T09:37:00.879Z,2530
2017-05-25T09:38:02.526Z,2590
2017-05-25T09:39:04.172Z,2585
2017-05-25T09:40:05.915Z,2555
2017-05-25T09:41:07.591Z,2635
2017-05-25T09:42:09.288Z,2615
2017-05-25T09:43:10.942Z,2535
2017-05-25T09:44:12.615Z,2410
2017-05-25T09:45:14.305Z,2520
2017-05-25T09:46:15.973Z,2550
2017-05-25T09:47:17.622Z,2420
2017-05-25T09:48:19.334Z,2480
2017-05-25T09:49:20.970Z,2470
2017-05-25T09:50:22.679Z,2340
2017-05-25T09:51:24.330Z,2210
2017-05-25T09:52:26.003Z,2340
2017-05-25T09:53:27.757Z,2250
2017-05-25T09:54:29.451Z,2385
2017-05-25T09:55:31.081Z,2400
2017-05-25T09:56:32.826Z,2390
2017-05-25T09:58:14.066Z,2510
2017-05-25T09:59:15.763Z,2575
2017-05-25T10:00:17.413Z,2560
2017-05-25T10:01:19.148Z,2485
2017-05-25T10:02:20.819Z,2390
2017-05-25T10:03:22.522Z,2280
2017-05-25T10:04:24.265Z,2160
2017-05-25T10:05:26.005Z,2130
2017-05-25T10:06:27.703Z,2160
2017-05-25T10:07:29.396Z,2220
2017-05-25T10:08:31.086Z,2165
2017-05-25T10:09:32.769Z,1990
2017-05-25T10:10:34.562Z,1995
2017-05-25T10:11:36.269Z,2010
2017-05-25T10:12:37.935Z,2010
2017-05-25T10:13:39.662Z,1985
2017-05-25T10:14:41.361Z,1955
2017-05-25T10:15:43.119Z,2025
2017-05-25T10:16:44.941Z,2010
2017-05-25T10:17:46.671Z,1980
2017-05-25T10:19:27.962Z,1855
2017-05-25T10:20:29.625Z,1775
2017-05-25T10:21:31.334Z,1670
2017-05-25T10:22:32.988Z,1640
2017-05-25T10:23:34.709Z,1720
2017-05-25T10:24:36.403Z,1760
2017-05-25T10:25:38.101Z,1810
2017-05-25T10:26:39.837Z,1825
2017-05-25T10:27:41.482Z,1795
2017-05-25T10:28:43.185Z,1710
2017-05-25T10:29:44.922Z,1540
2017-05-25T10:30:46.597Z,1485
2017-05-25T10:31:48.286Z,1525
2017-05-25T10:32:49.998Z,1460
2017-05-25T10:33:51.686Z,1375
2017-05-25T10:34:53.471Z,1250
2017-05-25T10:35:55.161Z,1235
2017-05-25T10:36:56.875Z,910
2017-05-25T10:37:58.562Z,440
2017-05-25T10:39:00.313Z,365
2017-05-25T10:40:02.116Z,355
2017-05-25T10:41:03.811Z,360
2017-05-25T10:42:05.567Z,355
2017-05-25T10:43:07.334Z,355
2017-05-25T10:44:09.053Z,355
2017-05-25T10:45:10.734Z,370
2017-05-25T10:46:12.676Z,370
2017-05-25T10:47:14.431Z,375
2017-05-25T10:48:16.259Z,415
2017-05-25T10:49:17.965Z,455
2017-05-25T10:50:19.729Z,480
2017-05-25T10:51:21.377Z,515
2017-05-25T10:52:23.075Z,485
2017-05-25T10:53:24.829Z,425
2017-05-25T10:54:26.544Z,360
2017-05-25T10:55:28.319Z,320
2017-05-25T10:56:29.966Z,305
2017-05-25T10:57:31.718Z,300
2017-05-25T10:58:33.383Z,300
2017-05-25T10:59:35.082Z,295
2017-05-25T11:00:36.818Z,290
2017-05-25T11:01:38.528Z,290
2017-05-25T11:02:40.202Z,290
2017-05-25T11:03:41.832Z,290
2017-05-25T11:04:43.498Z,285
2017-05-25T11:05:45.225Z,285
2017-05-25T11:06:46.895Z,285
2017-05-25T11:07:48.603Z,285
2017-05-25T11:08:50.224Z,285
2017-05-25T11:09:51.886Z,290
2017-05-25T11:10:53.576Z,325
2017-05-25T11:11:55.250Z,330
2017-05-25T11:12:56.976Z,310
2017-05-25T11:13:58.630Z,300
2017-05-25T11:15:00.386Z,285
2017-05-25T11:16:02.059Z,280
2017-05-25T11:17:03.746Z,280
2017-05-25T11:18:05.443Z,280
2017-05-25T11:19:07.129Z,285
2017-05-25T11:20:08.830Z,290
2017-05-25T11:21:10.530Z,290
2017-05-25T11:22:12.238Z,290
2017-05-25T11:23:13.946Z,290
2017-05-25T11:24:15.706Z,290
2017-05-25T11:25:17.337Z,285
2017-05-25T11:26:19.000Z,280
2017-05-25T11:27:20.690Z,285
2017-05-25T11:28:22.322Z,285
2017-05-25T11:29:24.013Z,280
2017-05-25T11:30:25.690Z,285
2017-05-25T11:31:27.440Z,290
2017-05-25T11:32:29.282Z,285
2017-05-25T11:33:30.933Z,285
2017-05-25T11:34:32.618Z,285
2017-05-25T11:35:34.285Z,290
2017-05-25T11:36:35.978Z,300
2017-05-25T11:37:37.697Z,305
2017-05-25T11:38:39.346Z,305
2017-05-25T11:39:41.070Z,300
2017-05-25T11:40:42.743Z,300
2017-05-25T11:41:44.522Z,320
2017-05-25T11:42:46.230Z,325
2017-05-25T11:43:47.901Z,305
2017-05-25T11:44:49.553Z,285
2017-05-25T11:45:51.288Z,300
2017-05-25T11:46:53.048Z,285
2017-05-25T11:47:54.753Z,290
2017-05-25T11:48:56.361Z,285
2017-05-25T11:49:58.114Z,285
2017-05-25T11:50:59.836Z,275
2017-05-25T11:52:01.643Z,265
2017-05-25T11:53:03.323Z,260
2017-05-25T11:54:05.010Z,275
2017-05-25T11:55:06.723Z,295
2017-05-25T11:56:08.403Z,280
2017-05-25T11:57:10.507Z,265
2017-05-25T11:58:12.205Z,255
2017-05-25T11:59:13.994Z,260
2017-05-25T12:00:15.767Z,265
2017-05-25T12:01:17.507Z,275
2017-05-25T12:02:19.292Z,265
2017-05-25T12:03:21.083Z,250
2017-05-25T12:04:22.826Z,240
2017-05-25T12:05:24.574Z,240
2017-05-25T12:06:26.319Z,245
2017-05-25T12:07:28.115Z,240
2017-05-25T12:08:29.900Z,235
2017-05-25T12:09:31.687Z,235
2017-05-25T12:10:33.417Z,230
2017-05-25T12:11:35.117Z,235
2017-05-25T12:12:36.967Z,235
2017-05-25T12:13:38.761Z,245
2017-05-25T12:14:40.474Z,250
2017-05-25T12:15:42.232Z,240
2017-05-25T12:16:44.049Z,240
2017-05-25T12:17:45.771Z,245
2017-05-25T12:18:47.505Z,240
2017-05-25T12:19:49.189Z,250
2017-05-25T12:20:50.863Z,255
2017-05-25T12:21:52.553Z,260
2017-05-25T12:22:54.295Z,255
2017-05-25T12:23:56.019Z,255
2017-05-25T12:24:57.726Z,250
2017-05-25T12:25:59.432Z,245
2017-05-25T12:27:01.115Z,240
2017-05-25T12:28:02.875Z,240
2017-05-25T12:29:04.571Z,235
2017-05-25T12:30:06.253Z,235
2017-05-25T12:31:08.004Z,235
2017-05-25T12:32:09.699Z,235
2017-05-25T12:33:11.459Z,235
2017-05-25T12:34:13.158Z,240
2017-05-25T12:35:14.876Z,250
2017-05-25T12:36:16.610Z,230
2017-05-25T12:37:18.326Z,245
2017-05-25T12:38:20.056Z,230
2017-05-25T12:39:21.870Z,250
2017-05-25T12:40:23.576Z,235
2017-05-25T12:41:25.277Z,235
2017-05-25T12:42:26.998Z,230
2017-05-25T12:43:28.841Z,225
2017-05-25T12:44:30.632Z,220
2017-05-25T12:46:11.945Z,225
2017-05-25T12:47:13.703Z,220
2017-05-25T12:48:15.464Z,215
2017-05-25T12:49:17.176Z,210
2017-05-25T12:50:18.936Z,210
2017-05-25T12:51:20.727Z,215
2017-05-25T12:52:22.433Z,215
2017-05-25T12:53:24.117Z,215
2017-05-25T12:54:25.786Z,215
2017-05-25T12:55:27.478Z,215
2017-05-25T12:56:29.254Z,215
2017-05-25T12:57:30.966Z,220
2017-05-25T12:58:32.684Z,230
2017-05-25T12:59:34.359Z,225
2017-05-25T13:00:36.000Z,230
2017-05-25T13:01:37.707Z,220
2017-05-25T13:02:39.430Z,225
2017-05-25T13:03:41.099Z,225
2017-05-25T13:04:42.765Z,230
2017-05-25T13:05:44.448Z,235
2017-05-25T13:06:46.288Z,245
2017-05-25T13:07:48.024Z,235
2017-05-25T13:08:49.798Z,215
2017-05-25T13:09:51.572Z,220
2017-05-25T13:10:53.254Z,230
2017-05-25T13:11:55.017Z,235
2017-05-25T13:12:56.704Z,235
2017-05-25T13:13:58.490Z,235
2017-05-25T13:15:00.339Z,235
2017-05-25T13:16:02.028Z,235
2017-05-25T13:17:03.865Z,240
2017-05-25T13:18:05.554Z,235
2017-05-25T13:19:07.207Z,230
2017-05-25T13:20:08.936Z,230
2017-05-25T13:21:10.698Z,235
2017-05-25T13:22:12.372Z,235
2017-05-25T13:23:14.051Z,240
2017-05-25T13:24:15.785Z,240
2017-05-25T13:25:17.572Z,245
2017-05-25T13:26:19.332Z,240
2017-05-25T13:27:20.993Z,240
2017-05-25T13:28:22.697Z,240
2017-05-25T13:29:24.455Z,225
2017-05-25T13:30:26.158Z,215
2017-05-25T13:31:27.861Z,260
2017-05-25T13:32:29.618Z,265
2017-05-25T13:33:31.287Z,285
2017-05-25T13:34:33.014Z,310
2017-05-25T13:35:34.727Z,320
2017-05-25T13:36:36.467Z,280
2017-05-25T13:37:38.218Z,285
2017-05-25T13:38:39.907Z,300
2017-05-25T13:39:41.677Z,290
2017-05-25T13:40:43.396Z,280
2017-05-25T13:41:45.135Z,255
2017-05-25T13:42:46.933Z,255
2017-05-25T13:43:48.690Z,265
2017-05-25T13:44:50.424Z,250
2017-05-25T13:45:52.154Z,265
2017-05-25T13:46:53.863Z,275
2017-05-25T13:47:55.561Z,275
2017-05-25T13:48:57.251Z,300
2017-05-25T13:49:58.986Z,275
2017-05-25T13:51:00.744Z,275
2017-05-25T13:52:02.438Z,270
2017-05-25T13:53:04.127Z,295
2017-05-25T13:54:05.836Z,300
2017-05-25T13:55:07.541Z,275
2017-05-25T13:56:09.409Z,290
2017-05-25T13:57:50.693Z,265
2017-05-25T13:59:31.920Z,260
2017-05-25T14:00:33.621Z,260
2017-05-25T14:01:35.341Z,265
2017-05-25T14:02:37.072Z,300
2017-05-25T14:03:38.849Z,310
2017-05-25T14:04:40.699Z,310
2017-05-25T14:05:42.439Z,310
2017-05-25T14:06:44.167Z,285
2017-05-25T14:07:45.861Z,285
2017-05-25T14:08:47.555Z,275
2017-05-25T14:09:49.419Z,285
2017-05-25T14:10:51.089Z,235
2017-05-25T14:11:52.812Z,225
2017-05-25T14:12:54.489Z,215
2017-05-25T14:13:56.214Z,230
2017-05-25T14:14:57.992Z,250
2017-05-25T14:15:59.685Z,245
2017-05-25T14:17:01.515Z,245
2017-05-25T14:18:03.207Z,255
2017-05-25T14:19:04.933Z,270
2017-05-25T14:20:06.638Z,275
2017-05-25T14:21:08.399Z,285
2017-05-25T14:22:10.214Z,305
2017-05-25T14:23:11.934Z,305
2017-05-25T14:24:13.573Z,295
2017-05-25T14:25:15.325Z,285
2017-05-25T14:26:16.996Z,305
2017-05-25T14:27:18.715Z,335
2017-05-25T14:28:20.360Z,325
2017-05-25T14:29:22.025Z,325
2017-05-25T14:30:23.717Z,320
2017-05-25T14:31:25.358Z,320
2017-05-25T14:32:27.105Z,305
2017-05-25T14:33:28.781Z,330
2017-05-25T14:34:30.463Z,320
2017-05-25T14:35:32.242Z,330
2017-05-25T14:36:33.878Z,345
2017-05-25T14:37:35.601Z,330
2017-05-25T14:38:37.324Z,345
2017-05-25T14:39:39.072Z,345
2017-05-25T14:40:40.741Z,340
2017-05-25T14:41:42.467Z,330
2017-05-25T14:42:44.134Z,285
2017-05-25T14:43:45.803Z,295
2017-05-25T14:44:47.557Z,270
2017-05-25T14:45:49.218Z,265
2017-05-25T14:46:50.856Z,290
2017-05-25T14:47:52.593Z,315
2017-05-25T14:48:54.239Z,340
2017-05-25T14:49:56.047Z,360
2017-05-25T14:50:57.736Z,355
2017-05-25T14:51:59.387Z,325
2017-05-25T14:53:01.016Z,305
2017-05-25T14:54:02.674Z,295
2017-05-25T14:55:04.416Z,290
2017-05-25T14:56:06.086Z,295
2017-05-25T14:57:07.770Z,305
2017-05-25T14:58:09.439Z,315
2017-05-25T14:59:11.071Z,325
2017-05-25T15:00:15.459Z,370
2017-05-25T15:01:18.517Z,385
2017-05-25T15:02:21.050Z,380
2017-05-25T15:03:22.707Z,365
2017-05-25T15:04:24.356Z,335
2017-05-25T15:05:26.093Z,340
2017-05-25T15:06:27.778Z,345
2017-05-25T15:07:29.470Z,330
2017-05-25T15:08:31.169Z,330
2017-05-25T15:10:12.410Z,320
2017-05-25T15:11:14.119Z,325
2017-05-25T15:12:15.807Z,350
2017-05-25T15:13:17.550Z,325
2017-05-25T15:14:19.345Z,325
2017-05-25T15:15:21.107Z,335
2017-05-25T15:16:22.805Z,350
2017-05-25T15:17:24.495Z,345
2017-05-25T15:18:26.242Z,345
2017-05-25T15:19:27.966Z,305
2017-05-25T15:20:29.870Z,295
2017-05-25T15:21:31.583Z,290
2017-05-25T15:22:33.317Z,285
2017-05-25T15:23:34.986Z,310
2017-05-25T15:24:36.684Z,310
2017-05-25T15:25:38.398Z,285
2017-05-25T15:26:40.158Z,290
2017-05-25T15:27:41.867Z,300
2017-05-25T15:28:43.557Z,300
2017-05-25T15:29:45.241Z,315
2017-05-25T15:30:46.926Z,330
2017-05-25T15:31:48.782Z,330
2017-05-25T15:32:50.463Z,330
2017-05-25T15:33:52.105Z,325
2017-05-25T15:34:53.815Z,315
2017-05-25T15:35:55.490Z,310
2017-05-25T15:36:57.236Z,315
2017-05-25T15:37:58.943Z,315
2017-05-25T15:39:00.637Z,300
2017-05-25T15:40:02.368Z,285
2017-05-25T15:41:04.026Z,275
2017-05-25T15:42:05.742Z,285
2017-05-25T15:43:07.422Z,295
2017-05-25T15:44:09.153Z,295
2017-05-25T15:45:10.852Z,280
2017-05-25T15:46:12.515Z,270
2017-05-25T15:47:14.232Z,255
2017-05-25T15:48:15.902Z,245
2017-05-25T15:49:17.598Z,245
2017-05-25T15:50:19.317Z,255
2017-05-25T15:51:21.020Z,260
2017-05-25T15:52:22.776Z,265
2017-05-25T15:53:24.526Z,260
2017-05-25T15:54:26.164Z,250
2017-05-25T15:55:27.868Z,240
2017-05-25T15:56:29.594Z,235
2017-05-25T15:57:31.390Z,220
2017-05-25T15:58:33.070Z,215
2017-05-25T15:59:34.726Z,215
2017-05-25T16:00:36.378Z,220
2017-05-25T16:01:38.199Z,230
2017-05-25T16:02:39.978Z,235
2017-05-25T16:03:41.628Z,240
2017-05-25T16:04:43.276Z,240
2017-05-25T16:05:44.947Z,260
2017-05-25T16:07:26.231Z,270
2017-05-25T16:08:27.931Z,260
2017-05-25T16:09:29.615Z,260
2017-05-25T16:10:31.263Z,245
2017-05-25T16:11:32.916Z,245
2017-05-25T16:12:34.609Z,250
2017-05-25T16:13:36.254Z,260
2017-05-25T16:14:37.955Z,270
2017-05-25T16:15:39.605Z,280
2017-05-25T16:16:41.330Z,255
2017-05-25T16:17:43.046Z,250
2017-05-25T16:18:44.676Z,245
2017-05-25T16:19:46.313Z,255
2017-05-25T16:20:48.038Z,240
2017-05-25T16:21:49.678Z,235
2017-05-25T16:22:51.334Z,225
2017-05-25T16:23:53.018Z,220
2017-05-25T16:24:54.663Z,215
2017-05-25T16:25:56.369Z,215
2017-05-25T16:26:58.075Z,210
2017-05-25T16:27:59.781Z,215
2017-05-25T16:29:01.437Z,210
2017-05-25T16:30:03.196Z,200
2017-05-25T16:31:04.963Z,220
2017-05-25T16:32:06.730Z,210
2017-05-25T16:33:08.437Z,210
2017-05-25T16:34:10.094Z,215
2017-05-25T16:35:11.797Z,210
2017-05-25T16:36:13.415Z,205
2017-05-25T16:37:15.143Z,195
2017-05-25T16:38:16.825Z,180
2017-05-25T16:39:18.515Z,180
2017-05-25T16:40:20.280Z,180
2017-05-25T16:41:21.952Z,195
2017-05-25T16:42:23.723Z,185
2017-05-25T16:43:25.417Z,165
2017-05-25T16:44:27.078Z,160
2017-05-25T16:45:28.739Z,155
2017-05-25T16:46:30.473Z,155
2017-05-25T16:47:32.119Z,160
2017-05-25T16:48:33.853Z,160
2017-05-25T16:49:35.485Z,160
2017-05-25T16:50:37.147Z,165
2017-05-25T16:51:38.801Z,170
2017-05-25T16:52:40.500Z,170
2017-05-25T16:53:42.239Z,190
2017-05-25T16:54:43.881Z,195
2017-05-25T16:55:45.539Z,200
2017-05-25T16:56:47.294Z,200
2017-05-25T16:57:48.989Z,200
2017-05-25T16:58:50.683Z,200
2017-05-25T16:59:52.370Z,200
2017-05-25T17:00:54.034Z,200
2017-05-25T17:01:55.703Z,205
2017-05-25T17:02:57.392Z,210
2017-05-25T17:03:59.137Z,215
2017-05-25T17:05:00.792Z,220
2017-05-25T17:06:02.474Z,225
2017-05-25T17:07:04.168Z,225
2017-05-25T17:08:05.802Z,225
2017-05-25T17:09:07.527Z,225
2017-05-25T17:10:09.257Z,225
2017-05-25T17:11:10.932Z,210
2017-05-25T17:12:12.543Z,200
2017-05-25T17:13:14.213Z,175
2017-05-25T17:14:15.923Z,160
2017-05-25T17:15:17.582Z,150
2017-05-25T17:16:19.265Z,135
2017-05-25T17:17:20.999Z,140
2017-05-25T17:18:22.620Z,140
2017-05-25T17:19:24.281Z,140
2017-05-25T17:20:25.892Z,130
2017-05-25T17:21:27.557Z,130
2017-05-25T17:22:29.301Z,130
2017-05-25T17:23:30.979Z,120
2017-05-25T17:24:32.598Z,115
2017-05-25T17:25:34.247Z,110
2017-05-25T17:26:35.926Z,110
2017-05-25T17:27:37.704Z,110
2017-05-25T17:28:39.399Z,110
2017-05-25T17:29:41.107Z,110
2017-05-25T17:30:42.790Z,115
2017-05-25T17:31:44.494Z,120
2017-05-25T17:32:46.230Z,125
2017-05-25T17:33:48.017Z,125
2017-05-25T17:34:49.715Z,130
2017-05-25T17:35:51.403Z,130
2017-05-25T17:36:53.055Z,130
2017-05-25T17:37:54.778Z,125
2017-05-25T17:38:56.440Z,120
2017-05-25T17:39:58.145Z,120
2017-05-25T17:40:59.920Z,120
2017-05-25T17:42:01.631Z,120
2017-05-25T17:43:03.287Z,125
2017-05-25T17:44:04.957Z,125
2017-05-25T17:45:06.710Z,125
2017-05-25T17:46:08.466Z,125
2017-05-25T17:47:10.159Z,125
2017-05-25T17:48:11.853Z,120
2017-05-25T17:49:13.517Z,120
2017-05-25T17:50:15.174Z,115
2017-05-25T17:51:16.919Z,110
2017-05-25T17:52:18.694Z,110
2017-05-25T17:53:20.348Z,110
2017-05-25T17:54:21.990Z,100
2017-05-25T17:55:23.681Z,100
2017-05-25T17:56:25.355Z,95
2017-05-25T17:57:27.159Z,95
2017-05-25T17:58:28.831Z,100
2017-05-25T17:59:30.493Z,105
2017-05-25T18:00:32.186Z,100
2017-05-25T18:01:33.845Z,100
2017-05-25T18:02:35.603Z,100
2017-05-25T18:03:37.274Z,100
2017-05-25T18:04:38.950Z,100
2017-05-25T18:05:40.592Z,100
2017-05-25T18:06:42.243Z,100
2017-05-25T18:07:43.946Z,100
2017-05-25T18:08:45.623Z,100
2017-05-25T18:09:47.408Z,100
2017-05-25T18:10:49.062Z,95
2017-05-25T18:11:50.712Z,100
2017-05-25T18:12:52.394Z,100
2017-05-25T18:13:54.060Z,95
2017-05-25T18:14:55.788Z,95
2017-05-25T18:15:57.473Z,90
2017-05-25T18:16:59.177Z,90
2017-05-25T18:18:00.902Z,90
2017-05-25T18:19:02.563Z,85
2017-05-25T18:20:04.348Z,85
2017-05-25T18:21:06.082Z,85
2017-05-25T18:22:07.812Z,80
2017-05-25T18:23:09.547Z,80
2017-05-25T18:24:11.198Z,80
2017-05-25T18:25:12.980Z,75
2017-05-25T18:26:14.784Z,75
2017-05-25T18:27:16.357Z,75
2017-05-25T18:28:18.076Z,75
2017-05-25T18:29:19.791Z,75
2017-05-25T18:30:21.563Z,70
2017-05-25T18:31:23.270Z,70
2017-05-25T18:32:24.950Z,70
2017-05-25T18:33:26.700Z,70
2017-05-25T18:34:28.480Z,65
2017-05-25T18:35:30.890Z,65
2017-05-25T18:36:32.575Z,65
2017-05-25T18:37:34.206Z,65
2017-05-25T18:38:35.891Z,60
2017-05-25T18:39:37.615Z,60
2017-05-25T18:40:39.323Z,60
2017-05-25T18:41:41.030Z,60
2017-05-25T18:42:42.698Z,55
2017-05-25T18:43:44.496Z,55
2017-05-25T18:44:46.140Z,55
2017-05-25T18:45:47.899Z,55
2017-05-25T18:46:49.596Z,50
2017-05-25T18:48:31.208Z,50
2017-05-25T18:49:32.870Z,50
2017-05-25T18:50:34.555Z,50
2017-05-25T18:51:36.249Z,45
2017-05-25T18:52:37.938Z,45
2017-05-25T18:53:39.698Z,45
2017-05-25T18:54:41.343Z,45
2017-05-25T18:55:43.002Z,40
2017-05-25T18:56:44.656Z,40
2017-05-25T18:57:46.397Z,40
2017-05-25T18:58:48.058Z,40
2017-05-25T18:59:49.767Z,35
2017-05-25T19:00:51.461Z,35
2017-05-25T19:01:53.146Z,35
2017-05-25T19:02:54.851Z,35
2017-05-25T19:03:56.540Z,30
2017-05-25T19:04:58.245Z,30
2017-05-25T19:05:59.969Z,30
2017-05-25T19:07:01.633Z,30
2017-05-25T19:08:03.352Z,25
2017-05-25T19:09:04.986Z,25
2017-05-25T19:10:06.686Z,25
2017-05-25T19:11:08.394Z,25
2017-05-25T19:12:10.084Z,25
2017-05-25T19:13:11.782Z,20
2017-05-25T19:14:13.462Z,20
2017-05-25T19:15:15.157Z,20
2017-05-25T19:16:16.845Z,20
2017-05-25T19:17:18.535Z,15
2017-05-25T19:18:20.243Z,15
2017-05-25T19:19:21.908Z,15
2017-05-25T19:20:23.574Z,15
2017-05-25T19:21:25.255Z,15
2017-05-25T19:22:26.913Z,15
2017-05-25T19:23:28.610Z,10
2017-05-25T19:24:30.499Z,10
2017-05-25T19:25:32.119Z,10
2017-05-25T19:26:33.839Z,10
2017-05-25T19:27:35.553Z,10
2017-05-25T19:28:37.296Z,10
2017-05-25T19:29:38.989Z,5
2017-05-25T19:30:40.678Z,5
2017-05-25T19:31:42.341Z,5
2017-05-25T19:32:43.996Z,5
2017-05-25T19:33:45.738Z,5
2017-05-25T19:34:47.505Z,5
2017-05-25T19:35:49.164Z,5
2017-05-25T19:36:50.846Z,5
2017-05-25T19:37:52.530Z,0
2017-05-25T19:38:54.242Z,0
2017-05-25T19:39:55.949Z,0
2017-05-25T19:40:57.608Z,0
2017-05-25T19:41:59.298Z,0
2017-05-25T19:43:00.943Z,0
2017-05-25T19:44:02.632Z,0
2017-05-25T19:45:04.335Z,0
2017-05-25T19:46:06.001Z,0
2017-05-25T19:47:07.648Z,0
2017-05-25T19:48:09.294Z,0
2017-05-25T19:49:10.957Z,0
2017-05-25T19:50:12.627Z,0
2017-05-25T19:51:14.381Z,0
2017-05-25T19:52:16.121Z,0
2017-05-25T19:53:17.806Z,0
2017-05-25T19:54:19.452Z,0
2017-05-25T19:55:21.127Z,0
2017-05-25T19:56:22.846Z,0
2017-05-25T19:57:24.543Z,0
2017-05-25T19:58:26.300Z,0
2017-05-25T19:59:27.964Z,0
2017-05-25T20:00:29.712Z,0
2017-05-25T20:01:31.419Z,0
2017-05-25T20:02:33.057Z,0
2017-05-25T20:03:34.803Z,0
2017-05-25T20:04:36.511Z,0
2017-05-25T20:05:38.274Z,0
2017-05-25T20:06:39.958Z,0
2017-05-25T20:07:41.562Z,0
2017-05-25T20:08:43.216Z,0
2017-05-25T20:09:44.922Z,0
2017-05-25T20:10:46.763Z,0
2017-05-25T20:11:48.403Z,0
2017-05-25T20:12:50.080Z,0
2017-05-25T20:13:51.756Z,0
2017-05-25T20:14:53.413Z,0
2017-05-25T20:15:55.161Z,0
2017-05-25T20:16:56.939Z,0
2017-05-25T20:17:58.673Z,0
2017-05-25T20:19:00.309Z,0
2017-05-25T20:20:01.991Z,0
2017-05-25T20:21:03.728Z,0
2017-05-25T20:22:05.417Z,0
2017-05-25T20:23:07.106Z,0
2017-05-25T20:24:08.838Z,0
2017-05-25T20:25:10.534Z,0
2017-05-25T20:26:12.211Z,0
2017-05-25T20:27:13.832Z,0
2017-05-25T20:28:15.522Z,0
2017-05-25T20:29:17.189Z,0
2017-05-25T20:30:18.894Z,0
2017-05-25T20:31:20.563Z,0
2017-05-25T20:32:22.203Z,0
2017-05-25T20:33:23.884Z,0
2017-05-25T20:34:25.574Z,0
2017-05-25T20:35:27.272Z,0
2017-05-25T20:36:28.935Z,0
2017-05-25T20:37:30.561Z,0
2017-05-25T20:38:32.231Z,0
2017-05-25T20:39:33.901Z,0
2017-05-25T20:40:35.615Z,0
2017-05-25T20:41:37.309Z,0
2017-05-25T20:42:38.971Z,0
2017-05-25T20:43:40.599Z,0
2017-05-25T20:44:42.235Z,0
2017-05-25T20:45:43.923Z,0
2017-05-25T20:46:45.615Z,0
2017-05-25T20:47:47.396Z,0
2017-05-25T20:48:49.096Z,0
2017-05-25T20:49:50.824Z,0
2017-05-25T20:50:52.585Z,0
2017-05-25T20:51:54.375Z,0
2017-05-25T20:52:56.106Z,0
2017-05-25T20:53:57.924Z,0
2017-05-25T20:54:59.672Z,0
2017-05-25T20:56:01.412Z,0
2017-05-25T20:57:03.123Z,0
2017-05-25T20:58:04.861Z,0
2017-05-25T20:59:06.675Z,0
2017-05-25T21:00:08.412Z,0
2017-05-25T21:01:10.159Z,0
2017-05-25T21:02:11.826Z,0
2017-05-25T21:03:13.553Z,0
2017-05-25T21:04:15.387Z,0
2017-05-25T21:05:17.146Z,0
2017-05-25T21:06:19.034Z,0
2017-05-25T21:07:20.791Z,0
2017-05-25T21:08:22.563Z,0
2017-05-25T21:09:24.347Z,0
2017-05-25T21:10:26.100Z,0
2017-05-25T21:11:42.381Z,0
2017-05-25T21:12:44.167Z,0
2017-05-25T21:14:25.403Z,0
2017-05-25T21:15:27.127Z,0
2017-05-25T21:16:28.785Z,0
2017-05-25T21:17:30.447Z,0
2017-05-25T21:18:32.162Z,0
2017-05-25T21:19:33.930Z,0
2017-05-25T21:20:35.626Z,0
2017-05-25T21:21:37.337Z,0